x

Cape Cleare - 17 Nm South Of Montague Is, Ak (46076) Wave Buoy

12:50pm - Thu 23rd Feb 2017 All times are AKST. -9 hours from GMT.

  • Sig Wave height 4.6ft
  • Swell Direction
  • Peak Period 10s
  • Average Period 7s
  • Wind
    7mph, 9mph gusts
  • Sea Temp 42°f
  • Air Temp 40°f
  • Sea Pressure 1032.4mb
  • Cape Cleare - 17 Nm South Of Montague Is,  Ak
  • Cape Cleare - 17 Nm South Of Montague Is,  Ak

More Historic Weather Station data

Upgrade to MSW Pro to gain access to the past 30 days of data for over 8000 Wavebouys and Weather Stations around the globe.

Join Pro

Comparision Forecast

View Surf forecast
   
Thu 02/23 12:50pm 4.5ft 10s 7s 7 9 mph 1032.4mb 42f 40f
11:50am 5ft 9s 7s 9 11 mph 1032.2mb 42f 39f
10:50am 4.5ft 8s 7s 11
mph
1032.2mb 42f 39f
9:50am 5ft 10s 7s 9 11 mph 1031.8mb 42f 39f
8:50am 5ft 10s 6s 9 11 mph 1032mb 42f 39f
7:50am 5ft 10s 7s 11 16 mph 1031.8mb 42f 40f
6:50am 4.5ft 10s 7s 11 13 mph 1032mb 42f 39f
5:50am 5ft 10s 7s 13 16 mph 1031.7mb 42f 39f
4:50am 5.5ft 10s 7s 16 18 mph 1031.8mb 42f 39f
3:50am 5ft 11s 7s 13 16 mph 1031.5mb 42f 39f
2:50am 6ft 11s 7s 11 13 mph 1031.9mb 42f 39f
1:50am 6ft 11s 7s 13 16 mph 1032.3mb 42f 38f
Wed 02/22 1:50pm 9ft 7s 6s 27 31 mph 1024.5mb 41f 34f
12:50pm 10.5ft 7s 6s 29 36 mph 1022.4mb 42f 33f
11:50am 9.5ft 9s 6s 31 40 mph 1020.7mb 42f 34f
10:50am 9ft 9s 6s 34 40 mph 1019mb 42f 34f
9:50am 8ft 8s 6s 20 25 mph 1018.1mb 41f 37f
8:50am 7ft 8s 6s 18 20 mph 1017.7mb 41f 36f
7:50am 6ft 7s 5s 20 25 mph 1017.3mb 42f 35f
6:50am 6ft 6s 5s 20 25 mph 1017.6mb 42f 35f
5:50am 5ft 5s 4s 22 25 mph 1018.2mb 42f 35f
4:50am 4.5ft 5s 4s 22 27 mph 1018.6mb 42f 35f
3:50am 4ft 4s 4s 20 22 mph 1019.6mb 42f 35f
1:50am 2.5ft 9s 4s 22 27 mph 1020.7mb 42f 32f
12:50am 2.5ft 10s 5s 16 20 mph 1022mb 42f 30f
Tue 02/21 11:50pm 2.5ft 9s 5s 11 13 mph 1022.6mb 42f 30f
10:50pm 2.5ft 9s 6s 9 13 mph 1022.3mb 42f 31f
9:50pm 2.5ft 6s 5s 7 11 mph 1022.1mb 42f 32f
8:50pm 2.5ft 6s 5s 2 4 mph 1022mb 42f 31f
7:50pm 2.5ft 10s 5s 2 4 mph 1022mb 42f 31f
6:50pm 2.5ft 6s 6s  -  2 mph 1021.8mb 42f 31f
5:50pm 2.5ft 6s 5s 4
mph
1021.2mb 42f 31f
4:50pm 3ft 6s 5s 7 9 mph 1020.9mb 42f 31f
3:50pm 3.5ft 6s 5s 4 7 mph 1020.2mb 42f 31f
2:50pm 3.5ft 7s 5s  -  7 mph 1019.6mb 42f 30f
1:50pm 3.5ft 7s 5s 4 7 mph 1019mb 42f 30f
12:50pm 3.5ft 7s 5s 7 11 mph 1018.3mb 42f 30f
11:50am 4ft 6s 5s 9 13 mph 1017.1mb 42f 29f
10:50am 4.5ft 7s 5s 11 13 mph 1016.2mb 42f 29f
9:50am 4.5ft 8s 6s 9 13 mph 1015.2mb 42f 29f
8:50am 4.5ft 9s 6s 9 13 mph 1014.2mb 42f 29f
7:50am 5ft 8s 6s 11 16 mph 1013.2mb 42f 29f
6:50am 5.5ft 8s 6s 13 20 mph 1012.2mb 42f 29f
5:50am 5ft 8s 6s 13 18 mph 1011.4mb 42f 29f
4:50am 5.5ft 7s 6s 13 20 mph 1010.5mb 42f 29f
3:50am 6ft 9s 6s 13 18 mph 1009.8mb 42f 29f
2:50am 6ft 8s 6s 7 11 mph 1009.3mb 42f 29f
1:50am 6ft 8s 6s 4 7 mph 1008.8mb 42f 28f
12:50am 7ft 7s 6s 9 13 mph 1008.3mb 42f 27f
Mon 02/20 11:50pm 7ft 7s 6s 13 18 mph 1007.8mb 42f 27f
10:50pm 8ft 8s 6s 16 22 mph 1007.3mb 42f 27f
9:50pm 8ft 7s 6s 18 22 mph 1007.1mb 42f 27f
8:50pm 8ft 8s 6s 20 25 mph 1006.8mb 42f 28f
7:50pm 8.5ft 9s 7s 18 25 mph 1006.6mb 42f 28f
6:50pm 9ft 9s 7s 18 25 mph 1006.4mb 42f 29f
5:50pm 8.5ft 8s 6s 16 22 mph 1006.3mb 42f 28f
4:50pm 9ft 9s 7s 18 22 mph 1006.1mb 42f 27f
3:50pm 8.5ft 8s 6s 22 27 mph 1006.2mb 42f 27f
2:50pm 8.5ft 7s 6s 25 31 mph 1006.4mb 42f 27f
1:50pm 9ft 7s 6s 22 29 mph 1006.5mb 42f 27f
12:50pm 8ft 7s 6s 25 29 mph 1006.3mb 42f 28f
11:50am 8ft 7s 6s 27 31 mph 1006mb 42f 28f
10:50am 8ft 7s 6s 22 27 mph 1005.5mb 42f 29f
9:50am 7.5ft 8s 6s 20 25 mph 1005.1mb 42f 30f
8:50am 8.5ft 9s 6s 18 22 mph 1004.8mb 42f 29f
7:50am 8ft 8s 6s 20 25 mph 1004.3mb 42f 29f
6:50am 7ft 8s 6s 20 25 mph 1004.1mb 42f 29f
5:50am 7ft 9s 6s 22 27 mph 1004mb 42f 30f
4:50am 8ft 9s 6s 22 27 mph 1004mb 41f 30f
3:50am 7ft 7s 6s 22 27 mph 1003.9mb 41f 31f
2:50am 6.5ft 7s 6s 18 22 mph 1003.9mb 41f 32f
1:50am 6.5ft 8s 6s 18 25 mph 1003.7mb 41f 32f
12:50am 6.5ft 8s 6s 18 22 mph 1003.8mb 41f 32f
Sun 02/19 11:50pm 6.5ft 7s 6s 16 20 mph 1003.9mb 41f 31f